createdAt,value
2018-07-09T00:00:14.541Z,91.48
2018-07-09T00:01:14.566Z,89.75
2018-07-09T00:02:14.588Z,90.81
2018-07-09T00:03:14.614Z,91.09
2018-07-09T00:04:14.641Z,90.81
2018-07-09T00:05:14.664Z,90.23
2018-07-09T00:06:14.729Z,90.52
2018-07-09T00:07:14.714Z,91.09
2018-07-09T00:08:14.737Z,91.57
2018-07-09T00:09:14.761Z,90.33
2018-07-09T00:10:14.787Z,90.71
2018-07-09T00:11:14.813Z,90.61
2018-07-09T00:12:14.838Z,90.04
2018-07-09T00:13:14.862Z,91.00
2018-07-09T00:14:14.898Z,90.61
2018-07-09T00:15:14.912Z,92.44
2018-07-09T00:16:14.938Z,91.57
2018-07-09T00:17:14.965Z,91.00
2018-07-09T00:18:14.995Z,91.67
2018-07-09T00:19:15.015Z,91.67
2018-07-09T00:20:15.035Z,91.00
2018-07-09T00:21:15.065Z,91.38
2018-07-09T00:22:15.087Z,91.48
2018-07-09T00:23:15.111Z,91.67
2018-07-09T00:24:15.138Z,92.24
2018-07-09T00:25:15.157Z,91.48
2018-07-09T00:26:15.188Z,91.19
2018-07-09T00:27:15.213Z,90.04
2018-07-09T00:28:15.236Z,91.19
2018-07-09T00:29:15.264Z,91.57
2018-07-09T00:30:15.292Z,92.24
2018-07-09T00:31:15.313Z,90.61
2018-07-09T00:32:15.340Z,90.52
2018-07-09T00:33:15.364Z,91.96
2018-07-09T00:34:15.386Z,91.48
2018-07-09T00:35:15.411Z,91.57
2018-07-09T00:36:15.437Z,91.48
2018-07-09T00:37:15.471Z,92.34
2018-07-09T00:38:15.491Z,91.48
2018-07-09T00:39:15.516Z,91.63
2018-07-09T00:40:15.537Z,92.15
2018-07-09T00:41:15.564Z,91.48
2018-07-09T00:42:15.592Z,91.14
2018-07-09T00:43:15.617Z,91.53
2018-07-09T00:44:15.640Z,92.10
2018-07-09T00:45:15.662Z,92.97
2018-07-09T00:46:15.687Z,93.54
2018-07-09T00:47:15.712Z,91.63
2018-07-09T00:48:15.744Z,91.43
2018-07-09T00:49:15.759Z,91.53
2018-07-09T00:50:15.790Z,92.20
2018-07-09T00:51:15.813Z,91.82
2018-07-09T00:52:15.838Z,92.39
2018-07-09T00:53:15.864Z,93.44
2018-07-09T00:54:15.887Z,94.40
2018-07-09T00:55:15.914Z,93.63
2018-07-09T00:56:15.940Z,94.02
2018-07-09T00:57:15.961Z,94.31
2018-07-09T00:58:15.986Z,94.02
2018-07-09T00:59:16.010Z,93.06
2018-07-09T01:00:16.038Z,94.21
2018-07-09T01:01:16.061Z,95.94
2018-07-09T01:02:16.090Z,94.59
2018-07-09T01:03:16.111Z,92.97
2018-07-09T01:04:16.133Z,92.77
2018-07-09T01:05:16.162Z,93.83
2018-07-09T01:06:16.188Z,94.55
2018-07-09T01:07:16.211Z,94.59
2018-07-09T01:08:16.235Z,93.26
2018-07-09T01:09:16.257Z,94.12
2018-07-09T01:10:16.284Z,93.93
2018-07-09T01:11:16.310Z,92.87
2018-07-09T01:12:16.331Z,92.97
2018-07-09T01:13:16.361Z,93.83
2018-07-09T01:14:16.379Z,94.50
2018-07-09T01:15:16.407Z,94.21
2018-07-09T01:16:16.429Z,93.63
2018-07-09T01:17:16.461Z,92.97
2018-07-09T01:18:16.483Z,93.06
2018-07-09T01:19:16.506Z,93.26
2018-07-09T01:20:16.577Z,94.79
2018-07-09T01:21:16.549Z,93.40
2018-07-09T01:22:16.583Z,94.69
2018-07-09T01:23:16.603Z,93.63
2018-07-09T01:24:16.631Z,94.02
2018-07-09T01:25:16.658Z,93.63
2018-07-09T01:26:16.672Z,93.44
2018-07-09T01:27:16.701Z,94.17
2018-07-09T01:28:16.725Z,94.74
2018-07-09T01:29:16.749Z,95.03
2018-07-09T01:30:16.775Z,95.17
2018-07-09T01:31:16.805Z,95.31
2018-07-09T01:32:16.833Z,95.31
2018-07-09T01:33:16.859Z,96.27
2018-07-09T01:34:16.877Z,96.13
2018-07-09T01:35:16.901Z,96.42
2018-07-09T01:36:16.929Z,96.08
2018-07-09T01:37:16.946Z,94.64
2018-07-09T01:38:16.975Z,94.35
2018-07-09T01:39:17.004Z,95.41
2018-07-09T01:40:17.027Z,95.98
2018-07-09T01:41:17.046Z,96.56
2018-07-09T01:42:17.075Z,95.70
2018-07-09T01:43:17.107Z,95.22
2018-07-09T01:44:17.121Z,96.18
2018-07-09T01:45:17.151Z,96.18
2018-07-09T01:46:17.169Z,96.56
2018-07-09T01:47:17.204Z,96.08
2018-07-09T01:48:17.219Z,95.51
2018-07-09T01:49:17.244Z,95.31
2018-07-09T01:50:17.269Z,96.08
2018-07-09T01:51:17.295Z,96.37
2018-07-09T01:52:17.323Z,96.27
2018-07-09T01:53:17.343Z,96.61
2018-07-09T01:54:17.360Z,95.36
2018-07-09T01:55:17.398Z,96.42
2018-07-09T01:56:17.418Z,95.31
2018-07-09T01:57:17.440Z,95.56
2018-07-09T01:58:17.465Z,95.36
2018-07-09T01:59:17.491Z,95.94
2018-07-09T02:00:17.515Z,95.36
2018-07-09T02:01:17.539Z,95.56
2018-07-09T02:02:17.565Z,94.64
2018-07-09T02:03:17.589Z,94.64
2018-07-09T02:04:17.619Z,95.84
2018-07-09T02:05:17.637Z,94.84
2018-07-09T02:06:17.661Z,95.60
2018-07-09T02:07:17.681Z,97.14
2018-07-09T02:08:17.709Z,96.75
2018-07-09T02:09:17.731Z,94.55
2018-07-09T02:10:17.757Z,95.60
2018-07-09T02:11:17.784Z,97.04
2018-07-09T02:12:17.811Z,95.51
2018-07-09T02:13:17.829Z,95.12
2018-07-09T02:14:17.863Z,95.51
2018-07-09T02:15:17.881Z,95.60
2018-07-09T02:16:17.908Z,97.04
2018-07-09T02:17:17.930Z,97.90
2018-07-09T02:18:17.952Z,98.00
2018-07-09T02:19:17.986Z,97.04
2018-07-09T02:20:18.006Z,96.75
2018-07-09T02:21:18.029Z,95.51
2018-07-09T02:22:18.057Z,96.94
2018-07-09T02:23:18.073Z,97.14
2018-07-09T02:24:18.101Z,95.98
2018-07-09T02:25:18.127Z,96.94
2018-07-09T02:26:18.148Z,98.10
2018-07-09T02:27:18.178Z,96.84
2018-07-09T02:28:18.196Z,97.23
2018-07-09T02:29:18.228Z,97.52
2018-07-09T02:30:18.247Z,97.04
2018-07-09T02:31:18.275Z,96.18
2018-07-09T02:32:18.303Z,96.75
2018-07-09T02:33:18.323Z,95.79
2018-07-09T02:34:18.344Z,97.14
2018-07-09T02:35:18.371Z,98.19
2018-07-09T02:36:18.395Z,98.28
2018-07-09T02:37:18.419Z,97.42
2018-07-09T02:38:18.442Z,98.00
2018-07-09T02:39:18.466Z,97.14
2018-07-09T02:40:18.493Z,98.67
2018-07-09T02:41:18.519Z,98.00
2018-07-09T02:42:18.545Z,98.47
2018-07-09T02:43:18.573Z,98.86
2018-07-09T02:44:18.589Z,98.57
2018-07-09T02:45:18.611Z,98.19
2018-07-09T02:46:18.643Z,97.90
2018-07-09T02:47:18.670Z,98.67
2018-07-09T02:48:18.690Z,98.19
2018-07-09T02:49:18.808Z,98.38
2018-07-09T02:50:18.740Z,98.67
2018-07-09T02:51:18.758Z,98.96
2018-07-09T02:52:18.791Z,98.10
2018-07-09T02:53:18.809Z,98.28
2018-07-09T02:54:18.833Z,98.67
2018-07-09T02:55:18.863Z,99.05
2018-07-09T02:56:18.885Z,98.10
2018-07-09T02:57:18.918Z,99.82
2018-07-09T02:58:18.933Z,99.05
2018-07-09T02:59:18.955Z,99.63
2018-07-09T03:00:18.982Z,99.72
2018-07-09T03:01:19.055Z,99.53
2018-07-09T03:02:19.031Z,99.43
2018-07-09T03:03:19.055Z,98.96
2018-07-09T03:04:19.091Z,98.10
2018-07-09T03:05:19.101Z,98.47
2018-07-09T03:06:19.122Z,99.34
2018-07-09T03:07:19.147Z,99.43
2018-07-09T03:08:19.170Z,98.96
2018-07-09T03:09:19.201Z,99.99
2018-07-09T03:10:19.218Z,99.63
2018-07-09T03:11:19.246Z,98.47
2018-07-09T03:12:19.265Z,99.53
2018-07-09T03:13:19.295Z,99.99
2018-07-09T03:14:19.319Z,99.99
2018-07-09T03:15:19.344Z,99.99
2018-07-09T03:16:19.369Z,99.99
2018-07-09T03:17:19.396Z,99.99
2018-07-09T03:18:19.419Z,99.99
2018-07-09T03:19:19.464Z,99.99
2018-07-09T03:20:19.470Z,99.99
2018-07-09T03:21:19.489Z,99.99
2018-07-09T03:22:19.512Z,99.99
2018-07-09T03:23:19.542Z,99.99
2018-07-09T03:24:19.566Z,99.99
2018-07-09T03:25:19.584Z,99.99
2018-07-09T03:26:19.613Z,99.99
2018-07-09T03:27:19.638Z,99.99
2018-07-09T03:28:19.660Z,99.99
2018-07-09T03:29:19.694Z,99.99
2018-07-09T03:30:19.709Z,99.99
2018-07-09T03:31:19.729Z,99.99
2018-07-09T03:32:19.753Z,99.99
2018-07-09T03:33:19.778Z,99.99
2018-07-09T03:34:19.804Z,99.99
2018-07-09T03:35:19.825Z,99.99
2018-07-09T03:36:19.849Z,99.99
2018-07-09T03:37:19.875Z,99.99
2018-07-09T03:38:19.897Z,99.99
2018-07-09T03:39:19.925Z,99.99
2018-07-09T03:40:19.949Z,99.99
2018-07-09T03:41:19.968Z,99.99
2018-07-09T03:42:19.997Z,99.99
2018-07-09T03:43:20.015Z,99.99
2018-07-09T03:44:20.045Z,99.99
2018-07-09T03:45:20.065Z,99.82
2018-07-09T03:46:20.093Z,99.53
2018-07-09T03:47:20.121Z,99.24
2018-07-09T03:48:20.139Z,99.99
2018-07-09T03:49:20.171Z,99.99
2018-07-09T03:50:20.185Z,99.63
2018-07-09T03:51:20.217Z,99.63
2018-07-09T03:52:20.238Z,99.63
2018-07-09T03:53:20.265Z,99.91
2018-07-09T03:54:20.288Z,99.34
2018-07-09T03:55:20.313Z,99.63
2018-07-09T03:56:20.333Z,99.99
2018-07-09T03:57:20.359Z,99.99
2018-07-09T03:58:20.383Z,99.34
2018-07-09T03:59:20.407Z,99.53
2018-07-09T04:00:20.425Z,99.91
2018-07-09T04:01:20.455Z,99.91
2018-07-09T04:02:20.541Z,99.99
2018-07-09T04:03:20.503Z,99.82
2018-07-09T04:04:20.523Z,99.87
2018-07-09T04:05:20.554Z,99.34
2018-07-09T04:06:20.577Z,99.99
2018-07-09T04:07:20.601Z,98.91
2018-07-09T04:08:20.621Z,99.29
2018-07-09T04:09:20.651Z,99.99
2018-07-09T04:10:20.673Z,99.77
2018-07-09T04:11:20.695Z,98.33
2018-07-09T04:12:20.721Z,97.76
2018-07-09T04:13:20.738Z,98.43
2018-07-09T04:14:20.769Z,99.01
2018-07-09T04:15:20.795Z,98.43
2018-07-09T04:16:20.813Z,99.39
2018-07-09T04:17:20.841Z,99.99
2018-07-09T04:18:20.869Z,99.01
2018-07-09T04:19:20.897Z,98.43
2018-07-09T04:20:20.914Z,97.76
2018-07-09T04:21:20.940Z,97.95
2018-07-09T04:22:20.963Z,98.00
2018-07-09T04:23:20.986Z,97.81
2018-07-09T04:24:21.010Z,97.90
2018-07-09T04:25:21.036Z,97.04
2018-07-09T04:26:21.090Z,98.19
2018-07-09T04:27:21.082Z,98.57
2018-07-09T04:28:21.112Z,96.94
2018-07-09T04:29:21.137Z,96.85
2018-07-09T04:30:21.157Z,98.00
2018-07-09T04:31:21.191Z,97.04
2018-07-09T04:32:21.203Z,96.47
2018-07-09T04:33:21.233Z,96.27
2018-07-09T04:34:21.254Z,95.98
2018-07-09T04:35:21.280Z,97.23
2018-07-09T04:36:21.309Z,97.42
2018-07-09T04:37:21.331Z,96.56
2018-07-09T04:38:21.358Z,97.04
2018-07-09T04:39:21.380Z,96.47
2018-07-09T04:40:21.405Z,97.33
2018-07-09T04:41:21.431Z,96.47
2018-07-09T04:42:21.449Z,96.56
2018-07-09T04:43:21.656Z,96.18
2018-07-09T04:44:21.502Z,96.51
2018-07-09T04:45:21.523Z,97.28
2018-07-09T04:46:21.558Z,96.99
2018-07-09T04:47:21.582Z,96.27
2018-07-09T04:48:21.603Z,96.18
2018-07-09T04:49:21.630Z,96.66
2018-07-09T04:50:21.655Z,97.14
2018-07-09T04:51:21.679Z,96.56
2018-07-09T04:52:21.703Z,96.47
2018-07-09T04:53:21.739Z,97.95
2018-07-09T04:54:22.075Z,98.14
2018-07-09T04:55:21.774Z,97.09
2018-07-09T04:56:21.797Z,96.80
2018-07-09T04:57:21.823Z,97.19
2018-07-09T04:58:21.853Z,97.19
2018-07-09T04:59:21.871Z,97.66
2018-07-09T05:00:21.905Z,96.94
2018-07-09T05:01:21.925Z,95.46
2018-07-09T05:02:21.947Z,96.03
2018-07-09T05:03:21.975Z,95.36
2018-07-09T05:04:22.054Z,95.55
2018-07-09T05:05:22.024Z,96.13
2018-07-09T05:06:22.049Z,95.46
2018-07-09T05:07:22.077Z,96.32
2018-07-09T05:08:22.105Z,96.56
2018-07-09T05:09:22.119Z,95.31
2018-07-09T05:10:22.152Z,95.50
2018-07-09T05:11:22.174Z,95.75
2018-07-09T05:12:22.201Z,96.75
2018-07-09T05:13:22.223Z,96.56
2018-07-09T05:14:22.248Z,95.89
2018-07-09T05:15:22.281Z,94.26
2018-07-09T05:16:22.301Z,94.93
2018-07-09T05:17:22.322Z,95.60
2018-07-09T05:18:22.356Z,96.37
2018-07-09T05:19:22.372Z,95.70
2018-07-09T05:20:22.401Z,95.60
2018-07-09T05:21:22.423Z,95.50
2018-07-09T05:22:22.451Z,96.66
2018-07-09T05:23:22.479Z,96.47
2018-07-09T05:24:22.502Z,95.79
2018-07-09T05:25:22.528Z,96.08
2018-07-09T05:26:22.551Z,95.21
2018-07-09T05:27:22.580Z,95.60
2018-07-09T05:28:22.625Z,96.27
2018-07-09T05:29:22.627Z,95.31
2018-07-09T05:30:22.651Z,96.18
2018-07-09T05:31:22.677Z,95.98
2018-07-09T05:32:22.705Z,96.27
2018-07-09T05:33:22.730Z,97.47
2018-07-09T05:34:22.756Z,96.37
2018-07-09T05:35:22.775Z,96.08
2018-07-09T05:36:22.804Z,95.50
2018-07-09T05:37:22.831Z,95.98
2018-07-09T05:38:22.861Z,95.60
2018-07-09T05:39:22.882Z,95.36
2018-07-09T05:40:22.910Z,95.84
2018-07-09T05:41:22.932Z,96.32
2018-07-09T05:42:22.955Z,96.13
2018-07-09T05:43:22.979Z,95.75
2018-07-09T05:44:23.009Z,95.79
2018-07-09T05:45:23.033Z,96.08
2018-07-09T05:46:23.055Z,96.56
2018-07-09T05:47:23.084Z,97.42
2018-07-09T05:48:23.111Z,97.52
2018-07-09T05:49:23.127Z,98.10
2018-07-09T05:50:23.159Z,97.96
2018-07-09T05:51:23.181Z,97.33
2018-07-09T05:52:23.213Z,96.18
2018-07-09T05:53:23.238Z,96.37
2018-07-09T05:54:23.259Z,97.14
2018-07-09T05:55:23.281Z,97.42
2018-07-09T05:56:23.308Z,96.75
2018-07-09T05:57:23.331Z,97.24
2018-07-09T05:58:23.363Z,96.94
2018-07-09T05:59:23.385Z,97.42
2018-07-09T06:00:23.411Z,96.80
2018-07-09T06:01:23.433Z,96.70
2018-07-09T06:02:23.462Z,96.03
2018-07-09T06:03:23.488Z,96.13
2018-07-09T06:04:23.512Z,96.70
2018-07-09T06:05:23.549Z,97.28
2018-07-09T06:06:23.556Z,96.61
2018-07-09T06:07:23.584Z,97.47
2018-07-09T06:08:23.609Z,97.38
2018-07-09T06:09:23.635Z,98.14
2018-07-09T06:10:23.664Z,97.47
2018-07-09T06:11:23.711Z,96.89
2018-07-09T06:12:23.716Z,96.51
2018-07-09T06:13:23.746Z,95.55
2018-07-09T06:14:23.768Z,95.45
2018-07-09T06:15:23.787Z,97.09
2018-07-09T06:16:23.815Z,96.80
2018-07-09T06:17:23.842Z,96.70
2018-07-09T06:18:23.863Z,96.61
2018-07-09T06:19:23.901Z,95.55
2018-07-09T06:20:23.914Z,96.89
2018-07-09T06:21:23.940Z,97.66
2018-07-09T06:22:23.968Z,96.61
2018-07-09T06:23:23.992Z,96.51
2018-07-09T06:24:24.026Z,96.13
2018-07-09T06:25:24.099Z,96.22
2018-07-09T06:26:24.073Z,96.61
2018-07-09T06:27:24.095Z,95.70
2018-07-09T06:28:24.118Z,94.93
2018-07-09T06:29:24.144Z,95.55
2018-07-09T06:30:24.169Z,94.69
2018-07-09T06:31:24.215Z,95.45
2018-07-09T06:32:24.216Z,95.98
2018-07-09T06:33:24.251Z,95.60
2018-07-09T06:34:24.270Z,94.93
2018-07-09T06:35:24.299Z,93.39
2018-07-09T06:36:24.328Z,94.16
2018-07-09T06:37:24.348Z,93.39
2018-07-09T06:38:24.374Z,93.77
2018-07-09T06:39:24.407Z,93.58
2018-07-09T06:40:24.423Z,94.16
2018-07-09T06:41:24.452Z,93.77
2018-07-09T06:42:24.481Z,92.72
2018-07-09T06:43:24.502Z,92.05
2018-07-09T06:44:24.531Z,92.29
2018-07-09T06:45:24.554Z,92.96
2018-07-09T06:46:24.585Z,91.71
2018-07-09T06:47:24.608Z,91.90
2018-07-09T06:48:24.635Z,89.98
2018-07-09T06:49:24.658Z,90.26
2018-07-09T06:50:24.683Z,89.78
2018-07-09T06:51:24.709Z,91.03
2018-07-09T06:52:24.738Z,90.79
2018-07-09T06:53:24.757Z,90.69
2018-07-09T06:54:24.786Z,91.71
2018-07-09T06:55:24.811Z,91.80
2018-07-09T06:56:24.838Z,92.86
2018-07-09T06:57:24.872Z,92.52
2018-07-09T06:58:24.890Z,92.29
2018-07-09T06:59:24.917Z,93.44
2018-07-09T07:00:24.943Z,93.24
2018-07-09T07:01:24.975Z,92.96
2018-07-09T07:02:25.130Z,91.90
2018-07-09T07:03:25.023Z,92.76
2018-07-09T07:04:25.049Z,91.80
2018-07-09T07:05:25.079Z,91.71
2018-07-09T07:06:25.101Z,91.71
2018-07-09T07:07:25.120Z,91.61
2018-07-09T07:08:25.151Z,91.61
2018-07-09T07:09:25.176Z,92.76
2018-07-09T07:10:25.203Z,93.63
2018-07-09T07:11:25.231Z,92.71
2018-07-09T07:12:25.257Z,91.56
2018-07-09T07:13:25.278Z,91.17
2018-07-09T07:14:25.330Z,92.23
2018-07-09T07:15:25.334Z,92.81
2018-07-09T07:16:25.359Z,91.75
2018-07-09T07:17:25.389Z,92.81
2018-07-09T07:18:25.413Z,91.66
2018-07-09T07:19:25.436Z,90.89
2018-07-09T07:20:25.468Z,91.66
2018-07-09T07:21:25.505Z,90.31
2018-07-09T07:22:25.516Z,91.17
2018-07-09T07:23:25.546Z,90.12
2018-07-09T07:24:25.575Z,89.73
2018-07-09T07:25:25.595Z,90.17
2018-07-09T07:26:25.676Z,91.03
2018-07-09T07:27:25.649Z,91.22
2018-07-09T07:28:25.678Z,90.84
2018-07-09T07:29:25.701Z,91.80
2018-07-09T07:30:25.730Z,92.57
2018-07-09T07:31:25.754Z,93.24
2018-07-09T07:32:25.784Z,92.19
2018-07-09T07:33:25.809Z,92.76
2018-07-09T07:34:25.830Z,93.24
2018-07-09T07:35:25.858Z,93.73
2018-07-09T07:36:25.892Z,94.98
2018-07-09T07:37:25.907Z,93.34
2018-07-09T07:38:25.938Z,91.99
2018-07-09T07:39:26.045Z,91.80
2018-07-09T07:40:25.993Z,92.76
2018-07-09T07:41:26.017Z,92.86
2018-07-09T07:42:26.041Z,91.99
2018-07-09T07:43:26.073Z,91.99
2018-07-09T07:44:26.092Z,91.80
2018-07-09T07:45:26.114Z,91.75
2018-07-09T07:46:26.150Z,91.17
2018-07-09T07:47:26.167Z,88.77
2018-07-09T07:48:26.202Z,88.62
2018-07-09T07:49:26.227Z,88.39
2018-07-09T07:50:26.368Z,87.23
2018-07-09T07:51:26.273Z,88.48
2018-07-09T07:52:26.300Z,90.02
2018-07-09T07:53:26.324Z,91.17
2018-07-09T07:54:26.352Z,90.17
2018-07-09T07:55:26.414Z,88.53
2018-07-09T07:56:26.406Z,87.19
2018-07-09T07:57:26.428Z,89.21
2018-07-09T07:58:26.465Z,88.48
2018-07-09T07:59:26.478Z,89.25
2018-07-09T08:00:26.512Z,87.71
2018-07-09T08:01:26.540Z,86.94
2018-07-09T08:02:26.560Z,85.74
2018-07-09T08:03:26.587Z,84.87
2018-07-09T08:04:26.611Z,84.48
2018-07-09T08:05:26.635Z,86.12
2018-07-09T08:06:26.660Z,85.16
2018-07-09T08:07:26.695Z,82.79
2018-07-09T08:08:26.714Z,82.79
2018-07-09T08:09:26.838Z,80.38
2018-07-09T08:10:26.776Z,80.68
2018-07-09T08:11:47.727Z,81.16
2018-07-09T08:13:13.476Z,81.06
2018-07-09T08:13:29.005Z,82.06
2018-07-09T08:14:26.876Z,81.87
2018-07-09T08:15:26.946Z,80.52
2018-07-09T08:16:26.927Z,79.13
2018-07-09T08:17:26.957Z,78.56
2018-07-09T08:18:26.977Z,78.61
2018-07-09T08:19:27.006Z,80.06
2018-07-09T08:20:27.036Z,79.81
2018-07-09T08:21:27.063Z,78.08
2018-07-09T08:22:27.088Z,76.92
2018-07-09T08:23:27.115Z,77.69
2018-07-09T08:24:27.142Z,79.43
2018-07-09T08:25:27.256Z,77.98
2018-07-09T08:26:27.191Z,76.15
2018-07-09T08:27:27.239Z,78.31
2018-07-09T08:28:27.244Z,76.23
2018-07-09T08:29:27.273Z,75.45
2018-07-09T08:30:27.298Z,74.10
2018-07-09T08:31:27.400Z,72.95
2018-07-09T08:32:27.355Z,73.62
2018-07-09T08:33:27.381Z,73.72
2018-07-09T08:34:27.411Z,74.10
2018-07-09T08:35:27.433Z,76.42
2018-07-09T08:36:27.462Z,75.74
2018-07-09T08:37:27.489Z,73.33
2018-07-09T08:38:27.519Z,74.30
2018-07-09T08:39:27.537Z,74.68
2018-07-09T08:40:27.573Z,73.14
2018-07-09T08:41:27.601Z,71.89
2018-07-09T08:42:27.626Z,72.85
2018-07-09T08:43:27.647Z,71.44
2018-07-09T08:44:27.674Z,71.00
2018-07-09T08:45:27.709Z,71.00
2018-07-09T08:46:27.734Z,70.32
2018-07-09T08:47:27.787Z,69.26
2018-07-09T08:48:27.788Z,68.29
2018-07-09T08:49:27.817Z,70.90
2018-07-09T08:50:27.839Z,70.94
2018-07-09T08:51:27.869Z,72.06
2018-07-09T08:52:27.899Z,68.35
2018-07-09T08:53:27.921Z,67.49
2018-07-09T08:54:27.951Z,69.57
2018-07-09T08:55:27.980Z,68.90
2018-07-09T08:56:28.007Z,70.92
2018-07-09T08:57:28.032Z,70.35
2018-07-09T08:58:28.057Z,73.14
2018-07-09T08:59:28.090Z,72.95
2018-07-09T09:00:28.119Z,71.60
2018-07-09T09:01:28.164Z,70.83
2018-07-09T09:02:28.177Z,70.44
2018-07-09T09:03:28.197Z,70.41
2018-07-09T09:04:28.224Z,71.12
2018-07-09T09:05:28.246Z,71.41
2018-07-09T09:06:28.284Z,70.92
2018-07-09T09:07:28.303Z,69.90
2018-07-09T09:08:28.331Z,69.03
2018-07-09T09:09:28.416Z,69.16
2018-07-09T09:10:28.433Z,67.81
2018-07-09T09:11:28.415Z,67.71
2018-07-09T09:12:28.447Z,67.58
2018-07-09T09:13:28.467Z,69.71
2018-07-09T09:14:28.504Z,71.92
2018-07-09T09:15:28.527Z,71.34
2018-07-09T09:16:28.563Z,71.83
2018-07-09T09:17:28.576Z,71.79
2018-07-09T09:18:28.607Z,73.72
2018-07-09T09:19:28.632Z,74.20
2018-07-09T09:20:28.667Z,73.10
2018-07-09T09:21:28.719Z,75.03
2018-07-09T09:22:28.721Z,73.68
2018-07-09T09:23:28.744Z,76.09
2018-07-09T09:24:28.771Z,74.93
2018-07-09T09:25:28.802Z,73.49
2018-07-09T09:26:28.828Z,74.55
2018-07-09T09:27:28.854Z,72.63
2018-07-09T09:28:28.882Z,72.63
2018-07-09T09:29:28.913Z,72.56
2018-07-09T09:30:28.934Z,72.47
2018-07-09T09:31:28.966Z,72.18
2018-07-09T09:32:28.985Z,73.85
2018-07-09T09:33:29.016Z,72.41
2018-07-09T09:34:29.039Z,71.64
2018-07-09T09:35:29.076Z,70.00
2018-07-09T09:36:29.095Z,70.00
2018-07-09T09:37:29.129Z,70.38
2018-07-09T09:38:29.158Z,70.86
2018-07-09T09:39:29.188Z,70.83
2018-07-09T09:40:29.207Z,70.92
2018-07-09T09:41:29.232Z,70.06
2018-07-09T09:42:29.262Z,71.70
2018-07-09T09:43:29.287Z,71.18
2018-07-09T09:44:29.320Z,72.53
2018-07-09T09:45:29.351Z,73.78
2018-07-09T09:46:29.424Z,73.88
2018-07-09T09:47:29.401Z,73.30
2018-07-09T09:48:29.426Z,73.10
2018-07-09T09:49:29.522Z,73.14
2018-07-09T09:50:29.481Z,72.50
2018-07-09T09:51:29.508Z,68.84
2018-07-09T09:52:29.535Z,68.87
2018-07-09T09:53:29.561Z,68.87
2018-07-09T09:54:29.597Z,65.27
2018-07-09T09:55:29.617Z,65.37
2018-07-09T09:56:29.645Z,64.47
2018-07-09T09:57:29.675Z,65.85
2018-07-09T09:58:29.705Z,66.82
2018-07-09T09:59:29.727Z,64.69
2018-07-09T10:00:29.772Z,64.56
2018-07-09T10:01:29.786Z,64.79
2018-07-09T10:02:29.815Z,64.50
2018-07-09T10:03:29.835Z,63.57
2018-07-09T10:04:29.864Z,62.89
2018-07-09T10:05:29.895Z,64.21
2018-07-09T10:06:29.935Z,65.95
2018-07-09T10:07:29.945Z,67.07
2018-07-09T10:08:30.029Z,65.43
2018-07-09T10:09:30.008Z,67.16
2018-07-09T10:10:30.033Z,67.81
2018-07-09T10:11:30.059Z,66.65
2018-07-09T10:12:30.090Z,68.04
2018-07-09T10:13:30.112Z,67.52
2018-07-09T10:14:30.145Z,68.96
2018-07-09T10:15:30.166Z,68.71
2018-07-09T10:16:30.197Z,68.99
2018-07-09T10:17:30.230Z,66.59
2018-07-09T10:18:30.247Z,65.91
2018-07-09T10:19:30.280Z,66.11
2018-07-09T10:20:30.312Z,65.05
2018-07-09T10:21:30.328Z,64.66
2018-07-09T10:22:30.363Z,64.18
2018-07-09T10:23:30.400Z,64.56
2018-07-09T10:24:30.420Z,63.41
2018-07-09T10:25:30.443Z,64.76
2018-07-09T10:26:30.470Z,63.89
2018-07-09T10:27:30.499Z,63.98
2018-07-09T10:28:30.525Z,62.38
2018-07-09T10:29:30.554Z,61.90
2018-07-09T10:30:30.635Z,62.31
2018-07-09T10:31:30.621Z,61.54
2018-07-09T10:32:30.637Z,61.90
2018-07-09T10:33:30.667Z,63.34
2018-07-09T10:34:30.690Z,64.37
2018-07-09T10:35:30.722Z,65.43
2018-07-09T10:36:30.749Z,64.69
2018-07-09T10:37:30.775Z,62.45
2018-07-09T10:38:30.799Z,63.41
2018-07-09T10:39:30.886Z,64.15
2018-07-09T10:40:30.862Z,63.76
2018-07-09T10:41:30.887Z,62.15
2018-07-09T10:42:30.915Z,64.37
2018-07-09T10:43:30.947Z,61.22
2018-07-09T10:44:30.973Z,61.25
2018-07-09T10:45:30.998Z,62.28
2018-07-09T10:46:31.025Z,61.32
2018-07-09T10:47:31.053Z,60.96
2018-07-09T10:48:31.084Z,59.32
2018-07-09T10:49:31.117Z,59.52
2018-07-09T10:50:31.139Z,60.10
2018-07-09T10:51:31.161Z,61.25
2018-07-09T10:52:31.191Z,61.47
2018-07-09T10:53:31.226Z,60.99
2018-07-09T10:54:31.249Z,58.07
2018-07-09T10:55:31.275Z,60.38
2018-07-09T10:56:31.305Z,61.47
2018-07-09T10:57:31.337Z,60.71
2018-07-09T10:58:31.361Z,60.80
2018-07-09T10:59:31.387Z,59.61
2018-07-09T11:00:31.419Z,62.51
2018-07-09T11:01:31.448Z,61.13
2018-07-09T11:02:31.481Z,61.58
2018-07-09T11:03:31.501Z,63.15
2018-07-09T11:04:31.527Z,63.54
2018-07-09T11:05:31.557Z,60.58
2018-07-09T11:06:31.600Z,60.28
2018-07-09T11:07:31.611Z,59.52
2018-07-09T11:08:31.643Z,60.41
2018-07-09T11:09:31.699Z,59.09
2018-07-09T11:10:31.699Z,59.31
2018-07-09T11:11:31.730Z,58.12
2018-07-09T11:12:31.755Z,59.22
2018-07-09T11:13:31.787Z,55.90
2018-07-09T11:14:31.813Z,57.19
2018-07-09T11:15:31.844Z,55.67
2018-07-09T11:16:31.877Z,56.32
2018-07-09T11:17:31.899Z,55.16
2018-07-09T11:18:31.933Z,57.64
2018-07-09T11:19:31.964Z,56.07
2018-07-09T11:20:31.987Z,56.51
2018-07-09T11:21:32.068Z,53.81
2018-07-09T11:22:32.047Z,53.35
2018-07-09T11:23:32.083Z,53.35
2018-07-09T11:24:32.109Z,53.13
2018-07-09T11:25:32.143Z,52.55
2018-07-09T11:26:32.165Z,52.01
2018-07-09T11:27:32.206Z,54.24
2018-07-09T11:28:32.227Z,52.69
2018-07-09T11:29:32.265Z,54.86
2018-07-09T11:30:32.291Z,55.89
2018-07-09T11:31:32.322Z,57.94
2018-07-09T11:32:32.350Z,57.01
2018-07-09T11:33:32.375Z,55.49
2018-07-09T11:34:32.406Z,57.23
2018-07-09T11:35:32.431Z,53.27
2018-07-09T11:36:32.460Z,52.65
2018-07-09T11:37:32.498Z,50.67
2018-07-09T11:38:32.522Z,49.60
2018-07-09T11:39:32.553Z,50.84
2018-07-09T11:40:32.581Z,50.48
2018-07-09T11:41:32.607Z,48.37
2018-07-09T11:42:32.670Z,49.32
2018-07-09T11:43:32.670Z,50.74
2018-07-09T11:44:32.697Z,52.41
2018-07-09T11:45:32.729Z,52.12
2018-07-09T11:46:32.757Z,52.58
2018-07-09T11:47:32.789Z,52.23
2018-07-09T11:48:32.816Z,53.85
2018-07-09T11:49:32.849Z,52.91
2018-07-09T11:50:32.881Z,53.91
2018-07-09T11:51:32.909Z,51.50
2018-07-09T11:52:32.937Z,47.20
2018-07-09T11:53:32.969Z,44.09
2018-07-09T11:54:32.998Z,42.03
2018-07-09T11:55:33.031Z,45.15
2018-07-09T11:56:33.057Z,48.81
2018-07-09T11:57:33.090Z,49.39
2018-07-09T11:58:33.128Z,48.61
2018-07-09T11:59:33.153Z,47.64
2018-07-09T12:00:33.182Z,48.93
2018-07-09T12:01:33.211Z,47.96
2018-07-09T12:02:33.248Z,48.71
2018-07-09T12:03:33.276Z,50.04
2018-07-09T12:04:33.307Z,45.87
2018-07-09T12:05:33.337Z,46.04
2018-07-09T12:06:33.366Z,46.53
2018-07-09T12:07:33.409Z,47.86
2018-07-09T12:08:33.431Z,49.46
2018-07-09T12:09:33.461Z,50.67
2018-07-09T12:10:33.499Z,52.17
2018-07-09T12:11:33.526Z,54.07
2018-07-09T12:12:33.562Z,53.93
2018-07-09T12:13:33.692Z,54.94
2018-07-09T12:14:33.620Z,55.59
2018-07-09T12:15:33.658Z,57.42
2018-07-09T12:16:33.688Z,58.19
2018-07-09T12:17:33.716Z,58.94
2018-07-09T12:18:33.750Z,59.68
2018-07-09T12:19:33.776Z,59.84
2018-07-09T12:20:33.807Z,61.77
2018-07-09T12:21:33.897Z,62.41
2018-07-09T12:22:33.869Z,61.93
2018-07-09T12:23:33.893Z,62.99
2018-07-09T12:24:33.928Z,62.41
2018-07-09T12:25:33.951Z,63.38
2018-07-09T12:26:33.989Z,63.38
2018-07-09T12:27:34.015Z,62.93
2018-07-09T12:28:34.044Z,65.43
2018-07-09T12:29:34.079Z,63.76
2018-07-09T12:30:34.097Z,64.34
2018-07-09T12:31:34.137Z,65.20
2018-07-09T12:32:34.159Z,65.40
2018-07-09T12:33:34.184Z,66.52
2018-07-09T12:34:34.219Z,67.77
2018-07-09T12:35:34.248Z,67.10
2018-07-09T12:36:34.295Z,68.84
2018-07-09T12:37:34.306Z,68.35
2018-07-09T12:38:34.333Z,68.03
2018-07-09T12:39:34.363Z,69.85
2018-07-09T12:40:34.384Z,70.43
2018-07-09T12:41:34.411Z,70.72
2018-07-09T12:42:34.445Z,71.17
2018-07-09T12:43:34.478Z,71.65
2018-07-09T12:44:34.497Z,70.78
2018-07-09T12:45:34.523Z,71.26
2018-07-09T12:46:34.552Z,70.88
2018-07-09T12:47:34.583Z,70.92
2018-07-09T12:48:34.603Z,71.01
2018-07-09T12:49:34.638Z,70.37
2018-07-09T12:50:34.678Z,69.89
2018-07-09T12:51:34.691Z,70.43
2018-07-09T12:52:34.717Z,70.82